createdAt,value
2024-01-20T00:00:24.327Z,50.86
2024-01-20T00:01:27.698Z,50.12
2024-01-20T00:02:29.647Z,51.28
2024-01-20T00:03:32.697Z,51.78
2024-01-20T00:04:34.878Z,51.53
2024-01-20T00:05:39.479Z,51.57
2024-01-20T00:06:43.411Z,51.14
2024-01-20T00:07:47.655Z,51.08
2024-01-20T00:08:49.794Z,51.32
2024-01-20T00:09:52.818Z,51.37
2024-01-20T00:10:54.876Z,50.43
2024-01-20T00:11:58.092Z,50.34
2024-01-20T00:13:00.076Z,51.57
2024-01-20T00:14:03.424Z,51.66
2024-01-20T00:15:07.293Z,50.86
2024-01-20T00:16:10.690Z,50.48
2024-01-20T00:17:21.325Z,50.85
2024-01-20T00:18:29.189Z,50.47
2024-01-20T00:19:31.293Z,51.11
2024-01-20T00:20:34.400Z,50.27
2024-01-20T00:21:39.289Z,51.32
2024-01-20T00:22:41.371Z,51.04
2024-01-20T00:23:44.338Z,51.35
2024-01-20T00:24:47.259Z,51.18
2024-01-20T00:25:51.364Z,51.29
2024-01-20T00:26:53.292Z,51.19
2024-01-20T00:27:56.195Z,50.77
2024-01-20T00:28:58.369Z,51.11
2024-01-20T00:30:01.778Z,50.84
2024-01-20T00:31:05.268Z,51.42
2024-01-20T00:32:08.620Z,51.07
2024-01-20T00:33:10.943Z,51.36
2024-01-20T00:34:14.003Z,51.36
2024-01-20T00:35:16.264Z,50.45
2024-01-20T00:36:19.622Z,51.34
2024-01-20T00:37:22.897Z,51.43
2024-01-20T00:38:26.583Z,51.27
2024-01-20T00:39:29.488Z,51.28
2024-01-20T00:40:31.707Z,50.46
2024-01-20T00:41:34.654Z,51.20
2024-01-20T00:42:36.645Z,50.47
2024-01-20T00:43:39.628Z,50.26
2024-01-20T00:44:42.785Z,51.35
2024-01-20T00:45:45.657Z,50.50
2024-01-20T00:46:47.720Z,50.57
2024-01-20T00:47:49.633Z,50.53
2024-01-20T00:48:52.836Z,50.36
2024-01-20T00:49:54.906Z,50.41
2024-01-20T00:50:57.794Z,51.37
2024-01-20T00:51:59.742Z,50.22
2024-01-20T00:53:04.293Z,50.49
2024-01-20T00:54:06.305Z,50.81
2024-01-20T00:55:11.328Z,50.18
2024-01-20T00:56:13.235Z,51.29
2024-01-20T00:57:15.150Z,50.00
2024-01-20T00:58:31.297Z,49.92
2024-01-20T00:59:33.216Z,50.55
2024-01-20T01:00:36.238Z,49.97
2024-01-20T01:01:38.491Z,50.60
2024-01-20T01:02:42.669Z,50.33
2024-01-20T01:03:44.610Z,51.38
2024-01-20T01:04:47.548Z,51.31
2024-01-20T01:05:49.505Z,49.84
2024-01-20T01:06:52.390Z,50.33
2024-01-20T01:07:54.313Z,50.79
2024-01-20T01:08:58.511Z,49.78
2024-01-20T01:10:00.594Z,49.81
2024-01-20T01:11:03.723Z,50.68
2024-01-20T01:12:06.230Z,50.27
2024-01-20T01:13:09.110Z,50.33
2024-01-20T01:14:11.140Z,49.88
2024-01-20T01:15:14.180Z,50.39
2024-01-20T01:16:16.352Z,50.76
2024-01-20T01:17:19.498Z,50.76
2024-01-20T01:18:21.672Z,49.79
2024-01-20T01:19:26.063Z,50.21
2024-01-20T01:20:28.161Z,51.09
2024-01-20T01:21:31.158Z,49.68
2024-01-20T01:22:33.139Z,51.35
2024-01-20T01:23:36.090Z,51.16
2024-01-20T01:24:39.387Z,49.97
2024-01-20T01:25:42.306Z,50.37
2024-01-20T01:26:45.434Z,51.09
2024-01-20T01:27:47.389Z,50.16
2024-01-20T01:28:50.354Z,51.26
2024-01-20T01:29:52.336Z,51.27
2024-01-20T01:30:55.265Z,50.60
2024-01-20T01:31:57.209Z,50.93
2024-01-20T01:32:59.216Z,51.21
2024-01-20T01:34:02.202Z,49.90
2024-01-20T01:35:05.912Z,51.20
2024-01-20T01:36:08.993Z,50.95
2024-01-20T01:37:10.861Z,50.79
2024-01-20T01:38:12.904Z,50.12
2024-01-20T01:39:16.824Z,50.49
2024-01-20T01:40:20.067Z,50.55
2024-01-20T01:41:22.986Z,50.19
2024-01-20T01:42:24.929Z,49.76
2024-01-20T01:43:28.437Z,49.64
2024-01-20T01:44:30.308Z,50.94
2024-01-20T01:45:35.177Z,50.83
2024-01-20T01:46:37.594Z,50.26
2024-01-20T01:47:40.854Z,50.70
2024-01-20T01:48:42.872Z,50.60
2024-01-20T01:49:46.009Z,50.20
2024-01-20T01:50:49.070Z,50.40
2024-01-20T01:51:52.889Z,50.80
2024-01-20T01:52:55.888Z,50.82
2024-01-20T01:54:02.656Z,50.84
2024-01-20T01:55:05.643Z,49.96
2024-01-20T01:56:10.684Z,49.83
2024-01-20T01:57:15.221Z,51.17
2024-01-20T01:58:18.454Z,50.76
2024-01-20T01:59:20.607Z,50.59
2024-01-20T02:00:23.986Z,50.61
2024-01-20T02:01:26.743Z,49.85
2024-01-20T02:02:29.628Z,49.57
2024-01-20T02:03:31.714Z,50.19
2024-01-20T02:04:33.630Z,50.68
2024-01-20T02:05:36.543Z,50.36
2024-01-20T02:06:38.798Z,49.69
2024-01-20T02:07:43.853Z,50.33
2024-01-20T02:08:45.931Z,51.00
2024-01-20T02:09:48.897Z,50.54
2024-01-20T02:10:51.128Z,51.22
2024-01-20T02:11:56.369Z,51.20
2024-01-20T02:12:59.532Z,49.94
2024-01-20T02:14:03.032Z,51.04
2024-01-20T02:15:06.184Z,50.50
2024-01-20T02:16:09.196Z,51.08
2024-01-20T02:17:11.364Z,50.28
2024-01-20T02:18:14.342Z,50.95
2024-01-20T02:19:16.454Z,51.08
2024-01-20T02:20:19.602Z,50.50
2024-01-20T02:21:21.654Z,51.52
2024-01-20T02:22:25.936Z,50.00
2024-01-20T02:23:28.325Z,51.33
2024-01-20T02:24:31.262Z,50.84
2024-01-20T02:25:33.174Z,50.02
2024-01-20T02:26:35.058Z,50.05
2024-01-20T02:27:38.075Z,50.55
2024-01-20T02:28:39.915Z,49.96
2024-01-20T02:29:42.828Z,50.65
2024-01-20T02:30:46.524Z,51.12
2024-01-20T02:31:49.383Z,50.72
2024-01-20T02:32:51.458Z,50.04
2024-01-20T02:33:53.680Z,51.18
2024-01-20T02:34:56.680Z,50.79
2024-01-20T02:35:58.612Z,50.44
2024-01-20T02:37:01.589Z,50.58
2024-01-20T02:38:05.159Z,50.45
2024-01-20T02:39:08.240Z,49.93
2024-01-20T02:40:10.421Z,50.96
2024-01-20T02:41:13.326Z,51.33
2024-01-20T02:42:15.430Z,50.57
2024-01-20T02:43:18.391Z,50.01
2024-01-20T02:44:20.212Z,49.93
2024-01-20T02:45:23.122Z,50.91
2024-01-20T02:46:25.108Z,49.83
2024-01-20T02:47:27.989Z,51.23
2024-01-20T02:48:30.738Z,51.20
2024-01-20T02:49:34.303Z,50.62
2024-01-20T02:50:36.240Z,50.39
2024-01-20T02:51:39.053Z,50.46
2024-01-20T02:52:40.914Z,50.81
2024-01-20T02:53:45.120Z,50.92
2024-01-20T02:54:47.044Z,51.19
2024-01-20T02:55:49.903Z,50.62
2024-01-20T02:56:51.948Z,49.85
2024-01-20T02:57:54.814Z,50.31
2024-01-20T02:58:56.635Z,49.88
2024-01-20T02:59:59.740Z,50.81
2024-01-20T03:01:03.398Z,51.01
2024-01-20T03:02:06.455Z,50.69
2024-01-20T03:03:08.628Z,50.49
2024-01-20T03:04:11.590Z,50.34
2024-01-20T03:05:13.759Z,50.95
2024-01-20T03:06:16.735Z,50.53
2024-01-20T03:07:19.045Z,50.73
2024-01-20T03:08:21.923Z,50.45
2024-01-20T03:09:25.159Z,50.88
2024-01-20T03:10:28.089Z,49.86
2024-01-20T03:11:30.185Z,50.69
2024-01-20T03:12:33.256Z,49.73
2024-01-20T03:13:35.259Z,49.15
2024-01-20T03:14:37.286Z,50.49
2024-01-20T03:15:40.320Z,49.75
2024-01-20T03:16:42.229Z,50.24
2024-01-20T03:17:45.112Z,50.54
2024-01-20T03:18:47.190Z,50.88
2024-01-20T03:19:50.252Z,50.14
2024-01-20T03:20:52.122Z,51.01
2024-01-20T03:21:54.095Z,50.83
2024-01-20T03:22:56.967Z,51.01
2024-01-20T03:23:59.209Z,50.76
2024-01-20T03:25:03.895Z,49.95
2024-01-20T03:26:09.410Z,50.64
2024-01-20T03:27:12.233Z,51.24
2024-01-20T03:28:14.094Z,50.30
2024-01-20T03:29:17.256Z,50.25
2024-01-20T03:30:19.360Z,49.97
2024-01-20T03:31:22.571Z,49.61
2024-01-20T03:32:24.500Z,49.39
2024-01-20T03:33:27.529Z,50.06
2024-01-20T03:34:29.548Z,50.41
2024-01-20T03:35:32.835Z,50.87
2024-01-20T03:36:34.724Z,50.17
2024-01-20T03:37:37.754Z,50.04
2024-01-20T03:38:39.669Z,50.51
2024-01-20T03:39:42.543Z,50.13
2024-01-20T03:40:45.896Z,49.58
2024-01-20T03:41:48.811Z,50.83
2024-01-20T03:42:50.708Z,49.63
2024-01-20T03:43:52.627Z,49.07
2024-01-20T03:44:55.616Z,49.55
2024-01-20T03:45:57.585Z,50.56
2024-01-20T03:47:00.551Z,49.56
2024-01-20T03:48:02.776Z,50.64
2024-01-20T03:49:06.056Z,50.37
2024-01-20T03:50:10.592Z,49.56
2024-01-20T03:51:13.842Z,48.85
2024-01-20T03:52:15.777Z,49.25
2024-01-20T03:53:18.580Z,50.07
2024-01-20T03:54:21.046Z,49.57
2024-01-20T03:55:23.108Z,49.06
2024-01-20T03:56:27.278Z,49.47
2024-01-20T03:57:29.232Z,49.99
2024-01-20T03:58:32.126Z,49.48
2024-01-20T03:59:34.111Z,50.55
2024-01-20T04:00:37.158Z,49.67
2024-01-20T04:01:40.587Z,50.62
2024-01-20T04:02:43.524Z,49.83
2024-01-20T04:03:45.988Z,50.75
2024-01-20T04:04:48.983Z,49.39
2024-01-20T04:05:50.960Z,50.52
2024-01-20T04:06:53.917Z,49.66
2024-01-20T04:07:55.818Z,49.45
2024-01-20T04:08:57.769Z,49.49
2024-01-20T04:10:00.824Z,49.90
2024-01-20T04:11:02.955Z,49.46
2024-01-20T04:12:08.419Z,49.89
2024-01-20T04:13:10.351Z,50.00
2024-01-20T04:14:13.244Z,50.15
2024-01-20T04:15:15.241Z,50.10
2024-01-20T04:16:18.216Z,50.59
2024-01-20T04:17:20.114Z,49.90
2024-01-20T04:18:24.042Z,48.52
2024-01-20T04:19:26.043Z,49.90
2024-01-20T04:20:28.961Z,49.94
2024-01-20T04:21:30.859Z,50.09
2024-01-20T04:22:33.733Z,49.03
2024-01-20T04:23:35.654Z,49.37
2024-01-20T04:24:38.528Z,49.13
2024-01-20T04:25:40.476Z,49.53
2024-01-20T04:26:43.938Z,50.42
2024-01-20T04:27:47.285Z,48.91
2024-01-20T04:28:50.464Z,49.85
2024-01-20T04:29:52.430Z,49.60
2024-01-20T04:30:55.359Z,50.18
2024-01-20T04:31:57.165Z,49.95
2024-01-20T04:33:00.023Z,50.07
2024-01-20T04:34:02.174Z,48.90
2024-01-20T04:35:06.616Z,50.25
2024-01-20T04:36:08.575Z,49.32
2024-01-20T04:37:11.473Z,49.13
2024-01-20T04:38:13.360Z,48.85
2024-01-20T04:39:16.406Z,49.69
2024-01-20T04:40:18.289Z,49.64
2024-01-20T04:41:21.105Z,49.42
2024-01-20T04:42:23.112Z,49.71
2024-01-20T04:43:29.472Z,49.18
2024-01-20T04:44:31.393Z,48.64
2024-01-20T04:45:34.504Z,49.40
2024-01-20T04:46:36.553Z,48.96
2024-01-20T04:47:39.502Z,49.16
2024-01-20T04:48:41.466Z,49.67
2024-01-20T04:49:44.561Z,49.22
2024-01-20T04:50:46.659Z,49.30
2024-01-20T04:51:48.746Z,49.02
2024-01-20T04:52:51.577Z,50.02
2024-01-20T04:53:53.477Z,49.17
2024-01-20T04:54:56.502Z,49.83
2024-01-20T04:55:58.381Z,49.60
2024-01-20T04:57:01.362Z,49.18
2024-01-20T04:58:03.470Z,49.81
2024-01-20T04:59:07.800Z,49.12
2024-01-20T05:00:10.675Z,49.12
2024-01-20T05:01:13.675Z,50.17
2024-01-20T05:02:15.776Z,50.59
2024-01-20T05:03:18.718Z,48.82
2024-01-20T05:04:20.734Z,49.83
2024-01-20T05:05:22.644Z,49.28
2024-01-20T05:06:25.469Z,48.52
2024-01-20T05:07:27.337Z,49.57
2024-01-20T05:08:30.217Z,49.44
2024-01-20T05:09:32.229Z,49.88
2024-01-20T05:10:35.536Z,49.61
2024-01-20T05:11:37.353Z,49.58
2024-01-20T05:12:40.277Z,49.18
2024-01-20T05:13:42.129Z,48.82
2024-01-20T05:14:46.530Z,49.85
2024-01-20T05:15:48.464Z,48.90
2024-01-20T05:16:51.507Z,48.89
2024-01-20T05:17:54.016Z,49.01
2024-01-20T05:18:57.166Z,49.68
2024-01-20T05:19:59.194Z,49.72
2024-01-20T05:21:02.228Z,48.68
2024-01-20T05:22:04.299Z,48.64
2024-01-20T05:23:07.172Z,49.02
2024-01-20T05:24:09.145Z,48.93
2024-01-20T05:25:11.969Z,50.13
2024-01-20T05:26:13.804Z,49.59
2024-01-20T05:27:15.621Z,49.50
2024-01-20T05:28:18.479Z,50.02
2024-01-20T05:29:20.349Z,48.99
2024-01-20T05:30:24.987Z,49.84
2024-01-20T05:31:32.433Z,49.59
2024-01-20T05:32:36.026Z,49.50
2024-01-20T05:33:38.169Z,48.92
2024-01-20T05:34:41.160Z,49.31
2024-01-20T05:35:43.103Z,48.86
2024-01-20T05:36:46.451Z,48.69
2024-01-20T05:37:48.282Z,48.63
2024-01-20T05:38:51.169Z,49.75
2024-01-20T05:39:53.084Z,49.33
2024-01-20T05:40:56.056Z,48.99
2024-01-20T05:41:57.966Z,49.13
2024-01-20T05:43:00.871Z,48.76
2024-01-20T05:44:03.840Z,49.52
2024-01-20T05:45:10.590Z,49.34
2024-01-20T05:46:15.265Z,48.76
2024-01-20T05:47:17.198Z,49.43
2024-01-20T05:48:20.409Z,48.70
2024-01-20T05:49:22.588Z,48.59
2024-01-20T05:50:25.664Z,48.33
2024-01-20T05:51:27.606Z,48.78
2024-01-20T05:52:30.443Z,48.95
2024-01-20T05:53:32.272Z,49.50
2024-01-20T05:54:35.549Z,49.50
2024-01-20T05:55:37.690Z,48.38
2024-01-20T05:56:40.524Z,48.21
2024-01-20T05:57:42.418Z,47.78
2024-01-20T05:58:45.287Z,48.94
2024-01-20T05:59:47.117Z,48.80
2024-01-20T06:00:50.719Z,48.17
2024-01-20T06:01:54.126Z,49.02
2024-01-20T06:02:57.121Z,48.23
2024-01-20T06:03:59.085Z,48.13
2024-01-20T06:05:02.080Z,48.83
2024-01-20T06:06:05.320Z,49.43
2024-01-20T06:07:08.286Z,48.96
2024-01-20T06:08:10.160Z,49.01
2024-01-20T06:09:13.223Z,48.43
2024-01-20T06:10:15.263Z,49.12
2024-01-20T06:11:17.126Z,48.97
2024-01-20T06:12:20.035Z,48.95
2024-01-20T06:13:21.985Z,48.38
2024-01-20T06:14:24.834Z,48.13
2024-01-20T06:15:26.750Z,47.78
2024-01-20T06:16:28.609Z,48.14
2024-01-20T06:17:32.925Z,47.71
2024-01-20T06:18:34.893Z,47.65
2024-01-20T06:19:38.019Z,48.31
2024-01-20T06:20:39.985Z,48.70
2024-01-20T06:21:43.966Z,47.83
2024-01-20T06:22:45.796Z,47.76
2024-01-20T06:23:47.773Z,48.88
2024-01-20T06:24:50.610Z,48.62
2024-01-20T06:25:52.529Z,48.26
2024-01-20T06:26:55.406Z,48.15
2024-01-20T06:27:57.317Z,47.81
2024-01-20T06:29:00.257Z,48.34
2024-01-20T06:30:02.151Z,48.28
2024-01-20T06:31:05.440Z,48.36
2024-01-20T06:32:07.830Z,48.75
2024-01-20T06:33:11.295Z,48.37
2024-01-20T06:34:14.240Z,49.10
2024-01-20T06:35:16.886Z,49.28
2024-01-20T06:36:19.844Z,48.76
2024-01-20T06:37:21.727Z,48.38
2024-01-20T06:38:26.237Z,48.67
2024-01-20T06:39:28.152Z,48.40
2024-01-20T06:40:31.309Z,48.13
2024-01-20T06:41:33.307Z,48.19
2024-01-20T06:42:36.258Z,49.21
2024-01-20T06:43:38.455Z,49.38
2024-01-20T06:44:41.387Z,48.45
2024-01-20T06:45:43.401Z,48.01
2024-01-20T06:46:45.509Z,48.91
2024-01-20T06:47:48.454Z,48.34
2024-01-20T06:48:52.354Z,48.59
2024-01-20T06:49:54.837Z,49.03
2024-01-20T06:50:57.780Z,48.66
2024-01-20T06:51:59.879Z,49.02
2024-01-20T06:53:03.808Z,49.06
2024-01-20T06:54:06.861Z,49.25
2024-01-20T06:55:10.119Z,48.58
2024-01-20T06:56:12.039Z,48.62
2024-01-20T06:57:15.008Z,49.14
2024-01-20T06:58:16.969Z,48.28
2024-01-20T06:59:19.946Z,49.05
2024-01-20T07:00:22.491Z,49.33
2024-01-20T07:01:26.607Z,49.24
2024-01-20T07:02:31.431Z,48.44
2024-01-20T07:03:34.566Z,48.96
2024-01-20T07:04:38.461Z,49.00
2024-01-20T07:05:41.429Z,49.19
2024-01-20T07:06:43.409Z,49.30
2024-01-20T07:07:46.620Z,48.35
2024-01-20T07:08:49.553Z,49.35
2024-01-20T07:09:51.436Z,48.74
2024-01-20T07:10:54.323Z,48.48
2024-01-20T07:11:58.926Z,48.05
2024-01-20T07:13:01.882Z,48.15
2024-01-20T07:14:03.922Z,48.18
2024-01-20T07:15:07.795Z,48.30
2024-01-20T07:16:11.564Z,48.13
2024-01-20T07:17:13.439Z,49.46
2024-01-20T07:18:16.598Z,48.86
2024-01-20T07:19:18.692Z,48.22
2024-01-20T07:20:22.987Z,48.09
2024-01-20T07:21:25.574Z,48.03
2024-01-20T07:22:28.475Z,47.69
2024-01-20T07:23:30.359Z,48.51
2024-01-20T07:24:33.506Z,48.48
2024-01-20T07:25:37.887Z,48.34
2024-01-20T07:26:40.885Z,48.53
2024-01-20T07:27:42.800Z,47.96
2024-01-20T07:28:45.700Z,47.15
2024-01-20T07:29:47.598Z,46.91
2024-01-20T07:30:50.451Z,46.71
2024-01-20T07:31:52.362Z,46.60
2024-01-20T07:32:59.241Z,46.80
2024-01-20T07:34:02.373Z,46.38
2024-01-20T07:35:06.019Z,47.20
2024-01-20T07:36:09.939Z,47.29
2024-01-20T07:37:13.064Z,47.79
2024-01-20T07:38:15.151Z,47.27
2024-01-20T07:39:18.468Z,47.36
2024-01-20T07:40:20.489Z,48.47
2024-01-20T07:41:23.933Z,47.68
2024-01-20T07:42:25.800Z,48.45
2024-01-20T07:43:28.655Z,48.25
2024-01-20T07:44:32.033Z,47.54
2024-01-20T07:45:35.251Z,48.78
2024-01-20T07:46:37.288Z,48.11
2024-01-20T07:47:40.302Z,48.00
2024-01-20T07:48:44.011Z,48.43
2024-01-20T07:49:47.159Z,48.03
2024-01-20T07:50:49.614Z,48.16
2024-01-20T07:51:52.875Z,48.90
2024-01-20T07:52:55.767Z,47.52
2024-01-20T07:53:57.734Z,48.81
2024-01-20T07:55:00.750Z,48.36
2024-01-20T07:56:02.573Z,47.70
2024-01-20T07:57:05.891Z,47.75
2024-01-20T07:58:08.048Z,47.89
2024-01-20T07:59:09.935Z,48.71
2024-01-20T08:00:13.634Z,47.67
2024-01-20T08:01:17.577Z,48.17
2024-01-20T08:02:20.467Z,48.26
2024-01-20T08:03:22.465Z,47.52
2024-01-20T08:04:25.369Z,47.86
2024-01-20T08:05:27.283Z,48.26
2024-01-20T08:06:30.486Z,47.87
2024-01-20T08:07:33.889Z,48.44
2024-01-20T08:08:36.795Z,48.19
2024-01-20T08:09:38.945Z,48.58
2024-01-20T08:10:41.956Z,48.13
2024-01-20T08:11:43.900Z,48.52
2024-01-20T08:12:46.772Z,47.96
2024-01-20T08:13:48.947Z,47.65
2024-01-20T08:14:51.948Z,47.88
2024-01-20T08:15:53.819Z,48.93
2024-01-20T08:16:56.706Z,48.50
2024-01-20T08:17:58.700Z,47.61
2024-01-20T08:19:01.736Z,47.74
2024-01-20T08:20:04.248Z,47.66
2024-01-20T08:21:08.608Z,48.50
2024-01-20T08:22:10.615Z,48.85
2024-01-20T08:23:14.865Z,48.53
2024-01-20T08:24:16.811Z,48.67
2024-01-20T08:25:19.714Z,49.04
2024-01-20T08:26:21.583Z,48.21
2024-01-20T08:27:24.478Z,48.55
2024-01-20T08:28:26.452Z,47.93
2024-01-20T08:29:29.379Z,48.80
2024-01-20T08:30:31.401Z,49.10
2024-01-20T08:31:34.308Z,48.83
2024-01-20T08:32:36.436Z,49.20
2024-01-20T08:33:39.399Z,47.93
2024-01-20T08:34:41.453Z,49.16
2024-01-20T08:35:44.417Z,48.24
2024-01-20T08:36:46.322Z,48.62
2024-01-20T08:37:49.164Z,48.10
2024-01-20T08:38:52.344Z,48.84
2024-01-20T08:39:55.194Z,47.95
2024-01-20T08:40:57.972Z,48.88
2024-01-20T08:42:01.581Z,49.18
2024-01-20T08:43:04.199Z,49.32
2024-01-20T08:44:07.148Z,48.40
2024-01-20T08:45:10.125Z,48.63
2024-01-20T08:46:13.741Z,48.39
2024-01-20T08:47:16.246Z,48.19
2024-01-20T08:48:19.329Z,48.82
2024-01-20T08:49:21.241Z,49.27
2024-01-20T08:50:24.818Z,49.31
2024-01-20T08:51:26.797Z,48.76
2024-01-20T08:52:29.719Z,49.47
2024-01-20T08:53:33.868Z,49.46
2024-01-20T08:54:39.304Z,49.91
2024-01-20T08:55:41.236Z,49.01
2024-01-20T08:56:44.513Z,49.99
2024-01-20T08:57:46.510Z,50.02
2024-01-20T08:58:49.385Z,49.97
2024-01-20T08:59:51.216Z,50.23
2024-01-20T09:00:54.294Z,49.25
2024-01-20T09:01:56.366Z,49.71
2024-01-20T09:02:59.263Z,49.11
2024-01-20T09:04:02.197Z,49.19
2024-01-20T09:05:05.979Z,50.69
2024-01-20T09:06:08.771Z,50.51
2024-01-20T09:07:12.412Z,49.81
2024-01-20T09:08:14.566Z,50.23
2024-01-20T09:09:16.961Z,50.06
2024-01-20T09:10:21.357Z,51.13
2024-01-20T09:11:23.966Z,50.85
2024-01-20T09:12:26.992Z,49.95
2024-01-20T09:13:28.957Z,50.21
2024-01-20T09:14:31.808Z,50.00
2024-01-20T09:15:34.329Z,51.37
2024-01-20T09:16:37.490Z,51.42
2024-01-20T09:17:39.464Z,50.17
2024-01-20T09:18:42.600Z,51.15
2024-01-20T09:19:45.904Z,50.77
2024-01-20T09:20:48.889Z,50.78
2024-01-20T09:21:50.841Z,51.69
2024-01-20T09:22:53.850Z,50.79
2024-01-20T09:23:55.800Z,50.75
2024-01-20T09:24:59.748Z,51.03
2024-01-20T09:26:03.107Z,50.54
2024-01-20T09:27:06.767Z,51.89
2024-01-20T09:28:08.675Z,51.11
2024-01-20T09:29:11.619Z,50.88
2024-01-20T09:30:14.133Z,51.61
2024-01-20T09:31:17.099Z,51.56
2024-01-20T09:32:19.068Z,51.58
2024-01-20T09:33:22.107Z,52.23
2024-01-20T09:34:24.176Z,51.18
2024-01-20T09:35:27.173Z,51.91
2024-01-20T09:36:29.168Z,51.41
2024-01-20T09:37:32.169Z,50.90
2024-01-20T09:38:34.154Z,51.41
2024-01-20T09:39:36.206Z,51.68
2024-01-20T09:40:39.189Z,51.04
2024-01-20T09:41:43.640Z,50.80
2024-01-20T09:42:47.780Z,52.12
2024-01-20T09:43:50.458Z,51.00
2024-01-20T09:44:54.404Z,51.24
2024-01-20T09:45:58.329Z,50.82
2024-01-20T09:47:01.529Z,51.44
2024-01-20T09:48:05.582Z,51.16
2024-01-20T09:49:08.745Z,50.39
2024-01-20T09:50:11.475Z,50.32
2024-01-20T09:51:14.600Z,50.34
2024-01-20T09:52:18.276Z,50.67
2024-01-20T09:53:21.334Z,51.42
2024-01-20T09:54:23.239Z,50.40
2024-01-20T09:55:27.559Z,50.90
2024-01-20T09:56:29.874Z,51.35
2024-01-20T09:57:36.471Z,50.56
2024-01-20T09:58:38.766Z,50.61
2024-01-20T10:00:02.516Z,51.35
2024-01-20T10:01:14.867Z,50.24
2024-01-20T10:02:19.350Z,50.33
2024-01-20T10:03:26.648Z,50.71
2024-01-20T10:04:29.910Z,51.38
2024-01-20T10:05:33.771Z,51.42
2024-01-20T10:06:35.991Z,50.05
2024-01-20T10:07:39.035Z,50.14
2024-01-20T10:08:40.985Z,50.80
2024-01-20T10:09:44.477Z,51.18
2024-01-20T10:10:46.537Z,50.04
2024-01-20T10:11:49.396Z,50.95
2024-01-20T10:12:54.433Z,50.79
2024-01-20T10:13:57.857Z,49.90
2024-01-20T10:14:59.835Z,49.82
2024-01-20T10:16:02.718Z,49.82
2024-01-20T10:17:04.713Z,50.50
2024-01-20T10:18:09.345Z,51.20
2024-01-20T10:19:11.447Z,50.69
2024-01-20T10:20:20.499Z,50.27
2024-01-20T10:21:24.096Z,49.87
2024-01-20T10:22:27.106Z,51.03
2024-01-20T10:23:29.129Z,49.66
2024-01-20T10:24:32.198Z,50.37
2024-01-20T10:25:34.249Z,49.97
2024-01-20T10:26:43.855Z,50.39
2024-01-20T10:27:46.241Z,50.56
2024-01-20T10:28:50.595Z,49.88
2024-01-20T10:29:52.841Z,50.78
2024-01-20T10:30:55.907Z,50.51
2024-01-20T10:31:57.787Z,50.06
2024-01-20T10:33:09.277Z,50.35
2024-01-20T10:34:12.982Z,50.03
2024-01-20T10:35:16.115Z,50.47
2024-01-20T10:36:18.838Z,50.42
2024-01-20T10:37:27.757Z,50.06
2024-01-20T10:38:30.150Z,49.83
2024-01-20T10:39:34.829Z,50.00
2024-01-20T10:40:41.478Z,50.38
2024-01-20T10:41:49.014Z,50.03
2024-01-20T10:42:57.102Z,49.64
2024-01-20T10:44:04.105Z,50.36
2024-01-20T10:45:10.762Z,50.81
2024-01-20T10:46:19.848Z,50.15
2024-01-20T10:47:30.416Z,49.31
2024-01-20T10:48:36.160Z,50.49
2024-01-20T10:49:47.146Z,49.54
2024-01-20T10:50:54.812Z,50.30
2024-01-20T10:51:57.626Z,49.78
2024-01-20T10:53:00.714Z,50.53
2024-01-20T10:54:03.794Z,49.55
2024-01-20T10:55:06.502Z,49.48
2024-01-20T10:56:10.381Z,49.55
2024-01-20T10:57:12.639Z,50.72
2024-01-20T10:58:19.641Z,50.71
2024-01-20T10:59:28.856Z,49.61
2024-01-20T11:00:32.571Z,50.77
2024-01-20T11:01:34.855Z,50.52
2024-01-20T11:02:38.256Z,50.51
2024-01-20T11:03:40.349Z,49.49
2024-01-20T11:04:45.418Z,50.32
2024-01-20T11:05:48.364Z,50.38
2024-01-20T11:06:52.398Z,49.53
2024-01-20T11:07:58.561Z,50.08
2024-01-20T11:09:02.714Z,49.64
2024-01-20T11:10:06.326Z,49.88
2024-01-20T11:11:11.013Z,50.82
2024-01-20T11:12:13.966Z,50.08
2024-01-20T11:13:16.726Z,50.20
2024-01-20T11:14:21.071Z,49.49
2024-01-20T11:15:30.082Z,50.58
2024-01-20T11:16:34.392Z,49.86
2024-01-20T11:17:36.370Z,49.89
2024-01-20T11:18:41.572Z,50.18
2024-01-20T11:19:44.199Z,50.83
2024-01-20T11:20:59.114Z,50.01
2024-01-20T11:22:01.069Z,50.44
2024-01-20T11:23:10.227Z,50.98
2024-01-20T11:24:13.696Z,50.40
2024-01-20T11:25:19.248Z,50.57
2024-01-20T11:26:21.152Z,51.08
2024-01-20T11:27:24.202Z,50.69
2024-01-20T11:28:27.427Z,50.51
2024-01-20T11:29:30.336Z,50.90
2024-01-20T11:30:35.826Z,50.44
2024-01-20T11:31:38.839Z,51.25
2024-01-20T11:32:41.058Z,49.92
2024-01-20T11:33:43.201Z,49.96
2024-01-20T11:34:49.737Z,50.75
2024-01-20T11:35:53.580Z,49.78
2024-01-20T11:37:00.314Z,50.16
2024-01-20T11:38:04.111Z,49.77
2024-01-20T11:39:07.628Z,50.71
2024-01-20T11:40:11.169Z,50.59
2024-01-20T11:41:18.161Z,50.39
2024-01-20T11:42:21.247Z,50.56
2024-01-20T11:43:24.483Z,50.23
2024-01-20T11:44:26.417Z,49.81
2024-01-20T11:45:58.607Z,49.99
2024-01-20T11:47:01.048Z,50.85
2024-01-20T11:48:05.802Z,50.29
2024-01-20T11:49:07.894Z,49.66
2024-01-20T11:50:11.985Z,50.08
2024-01-20T11:51:17.017Z,50.49
2024-01-20T11:52:22.792Z,49.95
2024-01-20T11:53:24.733Z,50.28
2024-01-20T11:54:27.879Z,49.27
2024-01-20T11:55:29.880Z,50.52
2024-01-20T11:56:32.797Z,49.61
2024-01-20T11:57:35.047Z,50.51
2024-01-20T11:58:38.126Z,49.73
2024-01-20T11:59:40.119Z,49.42
2024-01-20T12:00:44.480Z,49.67
2024-01-20T12:01:49.693Z,50.83
2024-01-20T12:02:53.833Z,50.39
2024-01-20T12:03:55.832Z,50.52
2024-01-20T12:05:04.438Z,51.05
2024-01-20T12:06:13.043Z,51.12
2024-01-20T12:07:19.389Z,50.71
2024-01-20T12:08:21.917Z,50.23
2024-01-20T12:09:24.799Z,50.69
2024-01-20T12:10:26.721Z,50.73
2024-01-20T12:11:29.676Z,51.29
2024-01-20T12:12:31.619Z,51.47
2024-01-20T12:13:36.853Z,50.20
2024-01-20T12:14:41.378Z,50.89
2024-01-20T12:15:44.605Z,51.60
2024-01-20T12:16:48.390Z,51.44
2024-01-20T12:17:51.469Z,51.67
2024-01-20T12:18:53.554Z,51.73
2024-01-20T12:19:56.705Z,51.27
2024-01-20T12:20:59.497Z,52.60
2024-01-20T12:22:01.651Z,51.37
2024-01-20T12:23:05.549Z,51.34
2024-01-20T12:24:10.268Z,51.89
2024-01-20T12:25:14.524Z,52.00
2024-01-20T12:26:17.672Z,52.41
2024-01-20T12:27:20.696Z,52.61
2024-01-20T12:28:22.787Z,52.33
2024-01-20T12:29:25.714Z,52.36
2024-01-20T12:30:27.951Z,52.34
2024-01-20T12:31:31.613Z,52.72
2024-01-20T12:32:35.051Z,52.55
2024-01-20T12:33:38.084Z,52.03
2024-01-20T12:34:40.019Z,51.77
2024-01-20T12:35:42.950Z,52.86
2024-01-20T12:36:44.905Z,52.32
2024-01-20T12:37:49.705Z,52.50
2024-01-20T12:38:51.619Z,52.29
2024-01-20T12:39:54.460Z,51.51
2024-01-20T12:40:56.543Z,51.63
2024-01-20T12:41:59.533Z,52.73
2024-01-20T12:43:02.003Z,53.03
2024-01-20T12:44:05.144Z,52.76
2024-01-20T12:45:08.334Z,53.20
2024-01-20T12:46:11.254Z,52.49
2024-01-20T12:47:13.219Z,51.78
2024-01-20T12:48:17.627Z,52.27
2024-01-20T12:49:21.517Z,52.45
2024-01-20T12:50:24.511Z,52.58
2024-01-20T12:51:26.468Z,52.95
2024-01-20T12:52:29.465Z,52.11
2024-01-20T12:53:31.497Z,52.51
2024-01-20T12:54:34.536Z,52.78
2024-01-20T12:55:36.858Z,52.90
2024-01-20T12:56:39.801Z,53.28
2024-01-20T12:57:41.820Z,52.23
2024-01-20T12:58:44.745Z,52.15
2024-01-20T12:59:47.409Z,51.71
2024-01-20T13:00:49.323Z,52.96
2024-01-20T13:01:52.806Z,52.90
2024-01-20T13:02:54.746Z,52.88
2024-01-20T13:03:58.128Z,52.34
2024-01-20T13:05:01.042Z,52.54
2024-01-20T13:06:03.032Z,52.31
2024-01-20T13:07:06.134Z,52.25
2024-01-20T13:08:08.120Z,52.90
2024-01-20T13:09:11.500Z,52.50
2024-01-20T13:10:13.481Z,53.57
2024-01-20T13:11:16.740Z,52.31
2024-01-20T13:12:19.017Z,52.32
2024-01-20T13:13:22.499Z,52.40
2024-01-20T13:14:24.570Z,52.95
2024-01-20T13:15:27.575Z,53.51
2024-01-20T13:16:29.710Z,74.79
2024-01-20T13:17:32.650Z,77.47
2024-01-20T13:18:34.764Z,73.59
2024-01-20T13:19:39.159Z,68.71
2024-01-20T13:20:41.206Z,65.46
2024-01-20T13:21:44.827Z,64.32
2024-01-20T13:22:47.721Z,61.55
2024-01-20T13:23:49.948Z,61.67
2024-01-20T13:24:54.474Z,60.57
2024-01-20T13:25:56.778Z,59.01
2024-01-20T13:26:59.783Z,57.68
2024-01-20T13:28:01.908Z,67.06
2024-01-20T13:29:04.812Z,69.60
2024-01-20T13:30:08.043Z,64.32
2024-01-20T13:31:11.034Z,62.25
2024-01-20T13:32:13.165Z,60.92
2024-01-20T13:33:16.350Z,60.17